createdAt,value
2023-05-14T00:00:56.099Z,75.88
2023-05-14T00:03:23.946Z,76.08
2023-05-14T00:05:52.174Z,76.24
2023-05-14T00:08:21.364Z,76.17
2023-05-14T00:10:49.142Z,76.30
2023-05-14T00:13:16.893Z,76.39
2023-05-14T00:15:44.755Z,76.41
2023-05-14T00:18:12.930Z,76.38
2023-05-14T00:20:40.913Z,76.79
2023-05-14T00:23:08.666Z,76.79
2023-05-14T00:25:38.135Z,76.75
2023-05-14T00:28:06.230Z,76.73
2023-05-14T00:30:33.927Z,76.84
2023-05-14T00:33:01.791Z,77.22
2023-05-14T00:35:29.569Z,77.21
2023-05-14T00:37:57.417Z,77.36
2023-05-14T00:40:27.676Z,77.21
2023-05-14T00:42:57.045Z,76.91
2023-05-14T00:45:24.870Z,77.05
2023-05-14T00:47:52.777Z,77.09
2023-05-14T00:50:21.184Z,76.95
2023-05-14T00:52:49.097Z,76.92
2023-05-14T00:55:17.715Z,76.73
2023-05-14T00:57:45.841Z,77.40
2023-05-14T01:00:15.849Z,77.25
2023-05-14T01:02:43.791Z,77.49
2023-05-14T01:05:11.710Z,77.50
2023-05-14T01:07:49.503Z,77.56
2023-05-14T01:10:26.085Z,77.70
2023-05-14T01:13:09.319Z,77.88
2023-05-14T01:15:41.342Z,78.04
2023-05-14T01:18:11.072Z,77.68
2023-05-14T01:20:38.842Z,78.16
2023-05-14T01:23:07.940Z,78.03
2023-05-14T01:25:36.010Z,77.67
2023-05-14T01:28:13.651Z,77.31
2023-05-14T01:30:46.918Z,76.88
2023-05-14T01:33:18.213Z,76.93
2023-05-14T01:35:46.761Z,77.27
2023-05-14T01:38:20.017Z,77.28
2023-05-14T01:40:48.398Z,76.95
2023-05-14T01:43:17.099Z,77.54
2023-05-14T01:45:45.079Z,77.49
2023-05-14T01:48:12.869Z,77.60
2023-05-14T01:50:43.329Z,77.65
2023-05-14T01:53:15.002Z,77.72
2023-05-14T01:55:42.728Z,77.76
2023-05-14T01:58:10.601Z,77.82
2023-05-14T02:00:38.432Z,78.12
2023-05-14T02:03:06.207Z,78.19
2023-05-14T02:05:33.953Z,78.13
2023-05-14T02:08:01.726Z,78.34
2023-05-14T02:10:31.146Z,78.37
2023-05-14T02:12:58.824Z,78.46
2023-05-14T02:15:26.542Z,78.66
2023-05-14T02:17:54.415Z,78.45
2023-05-14T02:20:22.481Z,78.53
2023-05-14T02:22:50.407Z,78.85
2023-05-14T02:25:18.232Z,78.94
2023-05-14T02:27:47.940Z,79.02
2023-05-14T02:30:15.831Z,78.95
2023-05-14T02:32:43.611Z,79.01
2023-05-14T02:35:11.436Z,78.96
2023-05-14T02:37:41.565Z,79.30
2023-05-14T02:40:10.404Z,79.52
2023-05-14T02:42:38.251Z,79.42
2023-05-14T02:45:08.605Z,79.39
2023-05-14T02:47:38.157Z,79.37
2023-05-14T02:50:07.391Z,79.50
2023-05-14T02:52:37.392Z,79.40
2023-05-14T02:55:06.246Z,79.65
2023-05-14T02:57:34.015Z,79.30
2023-05-14T03:00:01.767Z,79.68
2023-05-14T03:02:31.232Z,79.79
2023-05-14T03:05:00.037Z,79.76
2023-05-14T03:07:27.716Z,79.66
2023-05-14T03:09:55.562Z,80.05
2023-05-14T03:12:23.357Z,79.88
2023-05-14T03:14:51.061Z,79.64
2023-05-14T03:17:18.796Z,80.14
2023-05-14T03:19:47.934Z,79.68
2023-05-14T03:22:15.767Z,80.06
2023-05-14T03:24:43.530Z,80.06
2023-05-14T03:27:11.358Z,79.79
2023-05-14T03:29:39.084Z,79.87
2023-05-14T03:32:07.917Z,79.69
2023-05-14T03:34:35.759Z,79.87
2023-05-14T03:37:05.188Z,79.81
2023-05-14T03:39:32.955Z,80.39
2023-05-14T03:42:00.697Z,80.51
2023-05-14T03:44:28.583Z,80.27
2023-05-14T03:46:56.315Z,80.10
2023-05-14T03:49:24.063Z,80.24
2023-05-14T03:51:51.786Z,80.14
2023-05-14T03:54:20.826Z,79.94
2023-05-14T03:56:48.512Z,79.72
2023-05-14T03:59:16.242Z,80.04
2023-05-14T04:01:44.776Z,79.85
2023-05-14T04:04:12.639Z,79.86
2023-05-14T04:06:40.452Z,80.00
2023-05-14T04:09:08.152Z,80.17
2023-05-14T04:11:37.448Z,80.36
2023-05-14T04:14:05.217Z,80.25
2023-05-14T04:16:32.998Z,80.14
2023-05-14T04:19:05.016Z,79.53
2023-05-14T04:21:32.983Z,79.29
2023-05-14T04:24:00.709Z,79.45
2023-05-14T04:26:28.401Z,79.23
2023-05-14T04:28:58.262Z,79.30
2023-05-14T04:31:26.047Z,79.15
2023-05-14T04:33:53.849Z,79.39
2023-05-14T04:36:21.564Z,79.07
2023-05-14T04:38:49.282Z,78.87
2023-05-14T04:41:17.126Z,78.93
2023-05-14T04:43:44.827Z,79.29
2023-05-14T04:46:14.056Z,78.96
2023-05-14T04:48:41.847Z,79.10
2023-05-14T04:51:09.575Z,79.23
2023-05-14T04:53:37.413Z,79.20
2023-05-14T04:56:05.145Z,79.19
2023-05-14T04:58:34.770Z,79.37
2023-05-14T05:01:03.901Z,79.22
2023-05-14T05:03:33.271Z,79.22
2023-05-14T05:06:01.110Z,79.33
2023-05-14T05:08:29.229Z,79.34
2023-05-14T05:10:56.912Z,79.47
2023-05-14T05:13:24.629Z,79.52
2023-05-14T05:15:52.425Z,79.27
2023-05-14T05:18:20.256Z,78.16
2023-05-14T05:20:49.364Z,77.87
2023-05-14T05:23:17.214Z,76.53
2023-05-14T05:25:45.023Z,77.26
2023-05-14T05:28:12.797Z,75.73
2023-05-14T05:30:41.372Z,75.08
2023-05-14T05:33:09.415Z,74.03
2023-05-14T05:35:37.328Z,72.46
2023-05-14T05:38:07.925Z,71.77
2023-05-14T05:40:35.744Z,72.18
2023-05-14T05:43:03.465Z,72.63
2023-05-14T05:45:31.374Z,72.65
2023-05-14T05:47:59.182Z,72.75
2023-05-14T05:50:27.236Z,73.26
2023-05-14T05:52:55.137Z,73.53
2023-05-14T05:55:24.420Z,73.38
2023-05-14T05:57:52.296Z,73.34
2023-05-14T06:00:21.159Z,72.99
2023-05-14T06:02:50.523Z,73.15
2023-05-14T06:05:19.374Z,72.65
2023-05-14T06:07:47.304Z,72.20
2023-05-14T06:10:15.134Z,72.31
2023-05-14T06:12:44.351Z,70.96
2023-05-14T06:15:13.235Z,71.24
2023-05-14T06:17:41.693Z,71.43
2023-05-14T06:20:10.507Z,70.89
2023-05-14T06:22:38.899Z,70.18
2023-05-14T06:25:07.708Z,70.60
2023-05-14T06:27:35.666Z,71.16
2023-05-14T06:30:07.633Z,69.90
2023-05-14T06:32:35.572Z,70.44
2023-05-14T06:35:04.190Z,69.18
2023-05-14T06:37:32.020Z,68.87
2023-05-14T06:39:59.799Z,69.11
2023-05-14T06:42:27.622Z,68.51
2023-05-14T06:44:56.122Z,68.59
2023-05-14T06:47:25.865Z,67.96
2023-05-14T06:49:53.748Z,67.96
2023-05-14T06:52:21.575Z,67.72
2023-05-14T06:54:49.516Z,67.77
2023-05-14T06:57:17.364Z,67.13
2023-05-14T06:59:45.198Z,67.51
2023-05-14T07:02:13.589Z,67.71
2023-05-14T07:04:42.845Z,66.71
2023-05-14T07:07:15.304Z,66.85
2023-05-14T07:09:43.436Z,67.06
2023-05-14T07:12:11.298Z,67.83
2023-05-14T07:14:39.454Z,68.13
2023-05-14T07:17:07.503Z,67.50
2023-05-14T07:19:35.728Z,67.71
2023-05-14T07:22:05.707Z,67.58
2023-05-14T07:24:33.671Z,65.90
2023-05-14T07:27:01.941Z,67.06
2023-05-14T07:29:30.192Z,67.49
2023-05-14T07:31:58.322Z,67.01
2023-05-14T07:34:26.178Z,67.12
2023-05-14T07:36:54.179Z,67.33
2023-05-14T07:39:23.494Z,66.88
2023-05-14T07:41:51.929Z,67.03
2023-05-14T07:44:20.171Z,66.64
2023-05-14T07:46:47.955Z,66.43
2023-05-14T07:49:15.913Z,67.68
2023-05-14T07:51:43.737Z,66.73
2023-05-14T07:54:11.799Z,66.41
2023-05-14T07:56:41.276Z,66.11
2023-05-14T07:59:09.113Z,66.29
2023-05-14T08:01:40.720Z,65.35
2023-05-14T08:04:08.739Z,65.82
2023-05-14T08:06:37.203Z,65.00
2023-05-14T08:09:08.750Z,64.34
2023-05-14T08:11:36.751Z,64.13
2023-05-14T08:14:05.884Z,64.55
2023-05-14T08:16:33.694Z,64.37
2023-05-14T08:19:01.523Z,63.94
2023-05-14T08:21:29.329Z,63.46
2023-05-14T08:23:57.108Z,64.04
2023-05-14T08:26:24.867Z,63.34
2023-05-14T08:28:53.794Z,62.54
2023-05-14T08:31:23.061Z,62.75
2023-05-14T08:33:51.037Z,62.70
2023-05-14T08:36:18.844Z,62.29
2023-05-14T08:38:46.544Z,61.88
2023-05-14T08:41:16.094Z,62.40
2023-05-14T08:43:46.965Z,62.05
2023-05-14T08:46:16.109Z,61.34
2023-05-14T08:48:52.229Z,60.21
2023-05-14T08:51:20.653Z,59.86
2023-05-14T08:53:49.215Z,59.37
2023-05-14T08:56:19.403Z,58.75
2023-05-14T08:58:47.241Z,59.14
2023-05-14T09:01:15.006Z,57.74
2023-05-14T09:03:43.730Z,57.33
2023-05-14T09:06:15.184Z,55.44
2023-05-14T09:08:43.349Z,54.14
2023-05-14T09:11:11.160Z,54.41
2023-05-14T09:13:39.791Z,54.08
2023-05-14T09:16:08.408Z,53.52
2023-05-14T09:18:37.515Z,54.18
2023-05-14T09:21:05.990Z,54.91
2023-05-14T09:23:35.484Z,49.08
2023-05-14T09:26:06.598Z,50.42
2023-05-14T09:28:34.407Z,48.68
2023-05-14T09:31:03.496Z,47.38
2023-05-14T09:33:31.511Z,45.74
2023-05-14T09:36:00.700Z,45.78
2023-05-14T09:38:31.824Z,46.67
2023-05-14T09:41:01.920Z,45.42
2023-05-14T09:43:29.641Z,45.67
2023-05-14T09:45:57.362Z,42.87
2023-05-14T09:48:25.136Z,43.19
2023-05-14T09:50:53.197Z,42.65
2023-05-14T09:53:21.019Z,41.61
2023-05-14T09:55:49.343Z,43.06
2023-05-14T09:58:18.719Z,41.89
2023-05-14T10:00:47.701Z,41.40
2023-05-14T10:03:18.832Z,42.15
2023-05-14T10:05:50.232Z,39.32
2023-05-14T10:08:24.333Z,40.18
2023-05-14T10:10:54.865Z,39.98
2023-05-14T10:13:31.556Z,39.86
2023-05-14T10:16:07.591Z,41.07
2023-05-14T10:18:41.127Z,40.09
2023-05-14T10:21:10.662Z,39.81
2023-05-14T10:23:40.544Z,38.74
2023-05-14T10:26:09.115Z,37.19
2023-05-14T10:28:38.831Z,37.41
2023-05-14T10:31:07.833Z,35.79
2023-05-14T10:33:48.023Z,38.19
2023-05-14T10:36:15.788Z,38.18
2023-05-14T10:38:49.828Z,38.23
2023-05-14T10:41:18.077Z,39.28
2023-05-14T10:43:48.360Z,38.87
2023-05-14T10:46:16.641Z,37.76
2023-05-14T10:48:45.300Z,36.65
2023-05-14T10:51:13.972Z,37.28
2023-05-14T10:53:43.471Z,36.78
2023-05-14T10:56:12.933Z,35.68
2023-05-14T10:58:44.038Z,34.88
2023-05-14T11:01:14.543Z,34.80
2023-05-14T11:03:45.054Z,35.58
2023-05-14T11:06:15.310Z,35.25
2023-05-14T11:08:44.004Z,34.51
2023-05-14T11:11:19.219Z,33.19
2023-05-14T11:13:47.572Z,34.33
2023-05-14T11:16:23.221Z,32.95
2023-05-14T11:19:01.677Z,33.83
2023-05-14T11:21:29.740Z,33.55
2023-05-14T11:23:58.244Z,32.61
2023-05-14T11:26:26.201Z,33.36
2023-05-14T11:28:54.175Z,32.86
2023-05-14T11:31:25.219Z,31.89
2023-05-14T11:33:54.277Z,30.52
2023-05-14T11:36:22.293Z,31.90
2023-05-14T11:38:52.264Z,30.48
2023-05-14T11:41:21.688Z,30.86
2023-05-14T11:43:49.614Z,32.39
2023-05-14T11:46:19.338Z,30.72
2023-05-14T11:48:49.410Z,32.00
2023-05-14T11:51:17.450Z,30.97
2023-05-14T11:53:49.364Z,27.83
2023-05-14T11:56:17.557Z,28.56
2023-05-14T11:58:58.164Z,29.79
2023-05-14T12:01:30.357Z,30.70
2023-05-14T12:04:05.566Z,32.05
2023-05-14T12:06:33.853Z,33.12
2023-05-14T12:09:02.262Z,34.59
2023-05-14T12:11:40.311Z,34.61
2023-05-14T12:14:13.316Z,34.43
2023-05-14T12:16:42.790Z,33.82
2023-05-14T12:19:13.500Z,32.61
2023-05-14T12:21:41.687Z,32.97
2023-05-14T12:24:14.130Z,31.14
2023-05-14T12:26:45.665Z,31.88
2023-05-14T12:29:18.147Z,30.53
2023-05-14T12:31:50.309Z,30.80
2023-05-14T12:34:19.341Z,29.48
2023-05-14T12:36:47.114Z,29.02
2023-05-14T12:39:15.148Z,29.38
2023-05-14T12:41:42.997Z,29.78
2023-05-14T12:44:11.090Z,30.69
2023-05-14T12:46:39.038Z,32.26
2023-05-14T12:49:07.539Z,32.00
2023-05-14T12:51:36.847Z,33.13
2023-05-14T12:54:05.012Z,32.06
2023-05-14T12:56:32.972Z,31.66
2023-05-14T12:59:00.830Z,31.30
2023-05-14T13:01:28.635Z,30.71
2023-05-14T13:03:56.606Z,31.40
2023-05-14T13:06:24.543Z,32.01
2023-05-14T13:08:53.884Z,30.79
2023-05-14T13:11:21.919Z,29.38
2023-05-14T13:13:49.828Z,29.59
2023-05-14T13:16:17.627Z,30.04
2023-05-14T13:18:45.626Z,29.76
2023-05-14T13:21:13.758Z,29.00
2023-05-14T13:23:41.706Z,29.60
2023-05-14T13:26:10.978Z,28.98
2023-05-14T13:28:39.464Z,29.13
2023-05-14T13:31:09.458Z,28.59
2023-05-14T13:33:41.997Z,29.17
2023-05-14T13:36:11.723Z,28.91
2023-05-14T13:38:39.585Z,28.46
2023-05-14T13:41:07.501Z,28.25
2023-05-14T13:43:37.225Z,29.09
2023-05-14T13:46:06.829Z,29.99
2023-05-14T13:48:36.085Z,29.82
2023-05-14T13:51:03.886Z,30.58
2023-05-14T13:53:31.792Z,29.85
2023-05-14T13:56:02.307Z,30.13
2023-05-14T13:58:30.700Z,30.90
2023-05-14T14:00:59.991Z,30.94
2023-05-14T14:03:27.953Z,29.81
2023-05-14T14:05:55.884Z,30.78
2023-05-14T14:08:24.503Z,30.47
2023-05-14T14:10:55.426Z,29.80
2023-05-14T14:13:24.522Z,29.48
2023-05-14T14:15:52.617Z,29.63
2023-05-14T14:18:22.192Z,29.31
2023-05-14T14:20:50.125Z,29.11
2023-05-14T14:23:17.949Z,29.55
2023-05-14T14:25:45.857Z,29.38
2023-05-14T14:28:13.796Z,30.08
2023-05-14T14:30:41.656Z,29.72
2023-05-14T14:33:09.599Z,30.35
2023-05-14T14:35:38.970Z,31.13
2023-05-14T14:38:06.800Z,30.11
2023-05-14T14:40:34.604Z,31.38
2023-05-14T14:43:03.169Z,30.79
2023-05-14T14:45:31.211Z,31.03
2023-05-14T14:48:23.693Z,29.81
2023-05-14T14:50:52.894Z,30.03
2023-05-14T14:53:20.902Z,30.50
2023-05-14T14:55:49.120Z,30.61
2023-05-14T14:58:17.112Z,30.42
2023-05-14T15:00:48.112Z,30.74
2023-05-14T15:03:17.269Z,31.12
2023-05-14T15:05:45.898Z,31.12
2023-05-14T15:08:16.598Z,31.04
2023-05-14T15:10:46.134Z,30.48
2023-05-14T15:13:14.657Z,31.21
2023-05-14T15:15:43.028Z,31.36
2023-05-14T15:18:11.502Z,30.96
2023-05-14T15:20:43.888Z,30.53
2023-05-14T15:23:15.458Z,30.21
2023-05-14T15:25:45.333Z,29.75
2023-05-14T15:28:13.271Z,30.80
2023-05-14T15:30:41.431Z,30.48
2023-05-14T15:33:12.318Z,30.40
2023-05-14T15:35:40.763Z,29.62
2023-05-14T15:38:08.899Z,29.88
2023-05-14T15:40:38.653Z,30.20
2023-05-14T15:43:06.943Z,31.36
2023-05-14T15:45:55.487Z,32.65
2023-05-14T15:48:31.205Z,33.48
2023-05-14T15:51:02.595Z,34.26
2023-05-14T15:53:36.824Z,34.66
2023-05-14T15:56:08.340Z,35.00
2023-05-14T15:58:38.506Z,35.23
2023-05-14T16:01:07.393Z,35.24
2023-05-14T16:03:35.757Z,36.11
2023-05-14T16:06:04.072Z,36.28
2023-05-14T16:08:37.537Z,36.59
2023-05-14T16:11:07.803Z,35.79
2023-05-14T16:13:38.560Z,35.61
2023-05-14T16:16:07.028Z,35.83
2023-05-14T16:18:35.116Z,36.28
2023-05-14T16:21:06.497Z,35.97
2023-05-14T16:23:34.488Z,35.82
2023-05-14T16:26:02.737Z,36.69
2023-05-14T16:28:32.770Z,35.84
2023-05-14T16:31:03.458Z,36.07
2023-05-14T16:33:31.992Z,36.41
2023-05-14T16:36:00.054Z,36.22
2023-05-14T16:38:28.401Z,36.31
2023-05-14T16:43:24.668Z,36.82
2023-05-14T16:45:54.182Z,35.99
2023-05-14T16:48:28.270Z,36.95
2023-05-14T16:51:12.800Z,36.51
2023-05-14T16:53:41.796Z,36.87
2023-05-14T16:56:10.036Z,36.55
2023-05-14T16:58:38.900Z,36.37
2023-05-14T17:01:10.248Z,36.59
2023-05-14T17:03:38.430Z,36.71
2023-05-14T17:06:06.964Z,36.52
2023-05-14T17:08:35.762Z,36.80
2023-05-14T17:11:05.998Z,37.08
2023-05-14T17:13:34.624Z,37.23
2023-05-14T17:16:02.963Z,37.58
2023-05-14T17:18:33.113Z,36.90
2023-05-14T17:21:01.115Z,37.29
2023-05-14T17:23:28.969Z,37.58
2023-05-14T17:25:56.939Z,37.88
2023-05-14T17:28:25.038Z,36.96
2023-05-14T17:30:52.924Z,37.00
2023-05-14T17:33:20.853Z,36.92
2023-05-14T17:35:50.508Z,36.99
2023-05-14T17:38:18.555Z,36.70
2023-05-14T17:40:46.647Z,37.65
2023-05-14T17:43:17.370Z,37.16
2023-05-14T17:48:20.771Z,37.63
2023-05-14T17:50:49.973Z,36.92
2023-05-14T17:53:18.087Z,37.46
2023-05-14T17:55:46.034Z,37.60
2023-05-14T17:58:33.361Z,38.18
2023-05-14T18:01:01.457Z,38.04
2023-05-14T18:03:29.759Z,38.30
2023-05-14T18:06:00.252Z,38.16
2023-05-14T18:08:28.028Z,38.02
2023-05-14T18:11:08.359Z,38.63
2023-05-14T18:13:36.722Z,38.45
2023-05-14T18:16:04.991Z,38.56
2023-05-14T18:18:33.004Z,38.96
2023-05-14T18:21:02.320Z,38.98
2023-05-14T18:23:30.160Z,39.47
2023-05-14T18:25:58.051Z,39.65
2023-05-14T18:28:26.462Z,39.56
2023-05-14T18:30:54.395Z,39.45
2023-05-14T18:33:22.199Z,39.58
2023-05-14T18:35:50.053Z,39.86
2023-05-14T18:38:19.888Z,40.05
2023-05-14T18:40:47.788Z,40.03
2023-05-14T18:43:16.776Z,40.75
2023-05-14T18:45:47.409Z,40.37
2023-05-14T18:48:16.257Z,40.76
2023-05-14T18:50:44.092Z,40.93
2023-05-14T18:53:11.986Z,41.24
2023-05-14T18:55:43.247Z,41.56
2023-05-14T18:58:11.327Z,41.74
2023-05-14T19:00:39.192Z,41.71
2023-05-14T19:03:07.252Z,41.99
2023-05-14T19:05:35.270Z,42.29
2023-05-14T19:08:03.235Z,42.80
2023-05-14T19:10:31.098Z,42.82
2023-05-14T19:13:00.526Z,43.21
2023-05-14T19:15:28.413Z,43.22
2023-05-14T19:17:56.467Z,43.31
2023-05-14T19:20:24.353Z,43.32
2023-05-14T19:22:52.176Z,43.63
2023-05-14T19:25:20.134Z,44.17
2023-05-14T19:27:51.072Z,44.23
2023-05-14T19:30:21.247Z,44.48
2023-05-14T19:32:54.747Z,44.80
2023-05-14T19:35:22.988Z,45.01
2023-05-14T19:37:51.038Z,45.22
2023-05-14T19:40:19.103Z,45.43
2023-05-14T19:42:46.942Z,45.89
2023-05-14T19:45:14.903Z,46.14
2023-05-14T19:47:44.260Z,46.04
2023-05-14T19:50:12.282Z,46.31
2023-05-14T19:52:40.123Z,46.68
2023-05-14T19:55:10.567Z,46.93
2023-05-14T19:57:39.159Z,46.97
2023-05-14T20:00:09.546Z,47.37
2023-05-14T20:02:37.813Z,47.63
2023-05-14T20:05:09.119Z,47.54
2023-05-14T20:07:38.953Z,48.00
2023-05-14T20:10:09.110Z,47.85
2023-05-14T20:12:37.192Z,48.19
2023-05-14T20:15:05.646Z,48.52
2023-05-14T20:17:33.831Z,48.63
2023-05-14T20:20:01.725Z,49.32
2023-05-14T20:22:30.912Z,49.25
2023-05-14T20:25:00.807Z,48.96
2023-05-14T20:27:28.696Z,48.96
2023-05-14T20:29:56.487Z,49.47
2023-05-14T20:32:25.146Z,49.17
2023-05-14T20:34:53.134Z,49.08
2023-05-14T20:37:21.595Z,49.46
2023-05-14T20:39:50.869Z,49.69
2023-05-14T20:42:18.732Z,49.73
2023-05-14T20:44:48.364Z,50.09
2023-05-14T20:47:20.120Z,50.06
2023-05-14T20:49:48.192Z,50.27
2023-05-14T20:52:16.602Z,50.56
2023-05-14T20:54:44.602Z,51.10
2023-05-14T20:57:15.346Z,51.38
2023-05-14T20:59:43.194Z,51.70
2023-05-14T21:02:13.455Z,52.05
2023-05-14T21:04:43.942Z,52.00
2023-05-14T21:07:11.967Z,51.78
2023-05-14T21:09:52.295Z,51.82
2023-05-14T21:12:21.781Z,51.86
2023-05-14T21:14:49.618Z,51.98
2023-05-14T21:17:17.434Z,52.27
2023-05-14T21:19:45.229Z,52.74
2023-05-14T21:22:14.009Z,52.43
2023-05-14T21:24:42.054Z,52.31
2023-05-14T21:27:09.925Z,52.75
2023-05-14T21:29:39.694Z,52.60
2023-05-14T21:32:08.120Z,52.62
2023-05-14T21:34:35.956Z,52.89
2023-05-14T21:37:04.005Z,53.36
2023-05-14T21:39:31.889Z,53.78
2023-05-14T21:41:59.603Z,54.12
2023-05-14T21:44:27.514Z,54.82
2023-05-14T21:46:56.868Z,55.51
2023-05-14T21:49:26.035Z,56.40
2023-05-14T21:51:54.656Z,57.15
2023-05-14T21:54:22.521Z,57.91
2023-05-14T21:56:50.516Z,58.87
2023-05-14T21:59:18.361Z,59.65
2023-05-14T22:02:05.585Z,60.64
2023-05-14T22:04:36.642Z,63.54
2023-05-14T22:07:05.012Z,64.27
2023-05-14T22:09:32.910Z,64.79
2023-05-14T22:12:00.822Z,64.96
2023-05-14T22:14:28.897Z,65.87
2023-05-14T22:16:56.817Z,66.67
2023-05-14T22:19:25.701Z,67.45
2023-05-14T22:21:55.270Z,68.63
2023-05-14T22:24:23.137Z,68.72
2023-05-14T22:26:51.759Z,70.61
2023-05-14T22:29:19.769Z,71.02
2023-05-14T22:31:47.672Z,72.05
2023-05-14T22:34:15.479Z,73.15
2023-05-14T22:36:43.411Z,73.25
2023-05-14T22:39:13.637Z,74.38
2023-05-14T22:41:41.640Z,75.50
2023-05-14T22:44:09.482Z,76.32
2023-05-14T22:46:37.593Z,76.87
2023-05-14T22:49:05.901Z,77.43
2023-05-14T22:51:33.660Z,78.41
2023-05-14T22:54:01.425Z,78.02
2023-05-14T22:56:30.870Z,78.61
2023-05-14T22:59:00.291Z,79.56
2023-05-14T23:01:28.381Z,79.63
2023-05-14T23:03:56.506Z,80.40
2023-05-14T23:06:25.669Z,79.79
2023-05-14T23:08:53.528Z,79.48
2023-05-14T23:11:21.444Z,79.86
2023-05-14T23:13:50.795Z,80.41
2023-05-14T23:16:18.700Z,81.02
2023-05-14T23:18:46.771Z,81.08
2023-05-14T23:21:15.058Z,81.77
2023-05-14T23:23:42.958Z,81.67
2023-05-14T23:26:10.795Z,81.83
2023-05-14T23:28:38.619Z,82.13
2023-05-14T23:31:07.942Z,82.36
2023-05-14T23:33:35.976Z,82.11
2023-05-14T23:36:04.866Z,82.15
2023-05-14T23:38:33.049Z,82.62
2023-05-14T23:41:00.844Z,82.77
2023-05-14T23:43:28.621Z,83.21
2023-05-14T23:45:56.787Z,82.89
2023-05-14T23:48:26.423Z,82.37
2023-05-14T23:50:54.181Z,82.68
2023-05-14T23:53:21.913Z,83.00
2023-05-14T23:55:50.104Z,83.15
2023-05-14T23:58:18.045Z,83.70
